createdAt,value
2019-05-07T00:00:35.970Z,7.17
2019-05-07T00:03:05.345Z,7.03
2019-05-07T00:05:33.815Z,7.25
2019-05-07T00:08:02.973Z,7.65
2019-05-07T00:10:33.165Z,7.45
2019-05-07T00:13:03.802Z,6.90
2019-05-07T00:15:32.937Z,6.97
2019-05-07T00:18:03.176Z,6.20
2019-05-07T00:20:32.694Z,7.03
2019-05-07T00:23:02.914Z,6.78
2019-05-07T00:25:32.770Z,7.30
2019-05-07T00:28:02.758Z,6.47
2019-05-07T00:30:33.243Z,7.72
2019-05-07T00:33:02.768Z,6.83
2019-05-07T00:35:38.905Z,7.08
2019-05-07T00:38:09.368Z,6.75
2019-05-07T00:40:45.207Z,6.75
2019-05-07T00:43:15.459Z,7.15
2019-05-07T00:45:46.553Z,6.85
2019-05-07T00:48:15.079Z,6.83
2019-05-07T00:50:45.201Z,6.58
2019-05-07T00:53:13.719Z,7.17
2019-05-07T00:55:42.383Z,7.12
2019-05-07T00:58:13.175Z,7.30
2019-05-07T01:00:43.646Z,8.23
2019-05-07T01:03:12.904Z,6.87
2019-05-07T01:05:43.354Z,8.13
2019-05-07T01:08:13.160Z,7.67
2019-05-07T01:10:42.153Z,6.95
2019-05-07T01:13:12.585Z,7.50
2019-05-07T01:15:42.914Z,7.35
2019-05-07T01:18:12.387Z,7.05
2019-05-07T01:20:47.047Z,6.80
2019-05-07T01:23:17.019Z,7.83
2019-05-07T01:25:45.564Z,7.58
2019-05-07T01:28:14.011Z,7.47
2019-05-07T01:30:43.342Z,7.47
2019-05-07T01:33:17.333Z,7.67
2019-05-07T01:35:47.453Z,6.33
2019-05-07T01:38:17.564Z,7.53
2019-05-07T01:40:46.207Z,8.28
2019-05-07T01:43:14.786Z,7.37
2019-05-07T01:45:49.087Z,7.50
2019-05-07T01:48:16.473Z,7.42
2019-05-07T01:50:44.919Z,7.33
2019-05-07T01:53:13.522Z,7.37
2019-05-07T01:55:42.774Z,7.28
2019-05-07T01:58:13.149Z,7.03
2019-05-07T02:00:42.669Z,7.33
2019-05-07T02:03:29.387Z,7.42
2019-05-07T02:06:05.349Z,7.87
2019-05-07T02:08:38.187Z,7.65
2019-05-07T02:11:08.837Z,8.20
2019-05-07T02:13:37.425Z,8.10
2019-05-07T02:16:05.956Z,8.25
2019-05-07T02:18:34.556Z,8.33
2019-05-07T02:21:03.320Z,8.33
2019-05-07T02:23:34.547Z,8.10
2019-05-07T02:26:03.685Z,7.97
2019-05-07T02:28:33.050Z,8.58
2019-05-07T02:31:04.063Z,7.37
2019-05-07T02:33:34.906Z,7.75
2019-05-07T02:36:02.988Z,8.28
2019-05-07T02:38:45.363Z,7.70
2019-05-07T02:41:18.466Z,8.43
2019-05-07T02:43:48.368Z,7.70
2019-05-07T02:46:27.535Z,8.13
2019-05-07T02:48:56.577Z,7.90
2019-05-07T02:51:35.158Z,8.68
2019-05-07T02:54:13.392Z,8.55
2019-05-07T02:56:43.221Z,8.05
2019-05-07T02:59:13.675Z,8.30
2019-05-07T03:01:43.358Z,8.50
2019-05-07T03:04:13.014Z,8.63
2019-05-07T03:06:44.224Z,8.13
2019-05-07T03:09:14.488Z,9.30
2019-05-07T03:11:43.440Z,7.28
2019-05-07T03:14:14.060Z,8.65
2019-05-07T03:16:48.474Z,7.83
2019-05-07T03:19:13.593Z,8.73
2019-05-07T03:21:55.053Z,9.73
2019-05-07T03:24:26.103Z,8.78
2019-05-07T03:26:54.562Z,9.10
2019-05-07T03:29:24.867Z,8.43
2019-05-07T03:32:15.743Z,9.48
2019-05-07T03:34:57.190Z,8.70
2019-05-07T03:37:24.151Z,8.73
2019-05-07T03:39:53.803Z,8.73
2019-05-07T03:42:23.618Z,8.95
2019-05-07T03:45:03.387Z,9.10
2019-05-07T03:47:33.200Z,9.25
2019-05-07T03:50:03.378Z,9.25
2019-05-07T03:52:33.597Z,8.80
2019-05-07T03:55:03.673Z,8.80
2019-05-07T03:57:33.590Z,9.98
2019-05-07T04:00:04.341Z,8.83
2019-05-07T04:02:33.430Z,8.98
2019-05-07T04:05:04.239Z,9.33
2019-05-07T04:07:33.911Z,8.83
2019-05-07T04:10:10.196Z,10.50
2019-05-07T04:12:38.950Z,9.78
2019-05-07T04:15:07.549Z,9.18
2019-05-07T04:17:36.104Z,9.80
2019-05-07T04:20:07.034Z,9.68
2019-05-07T04:22:35.650Z,9.83
2019-05-07T04:25:26.028Z,9.08
2019-05-07T04:28:03.692Z,9.78
2019-05-07T04:30:33.249Z,9.05
2019-05-07T04:33:03.727Z,9.95
2019-05-07T04:35:45.906Z,8.95
2019-05-07T04:38:14.767Z,9.48
2019-05-07T04:40:43.702Z,8.93
2019-05-07T04:43:13.564Z,9.55
2019-05-07T04:45:43.429Z,9.63
2019-05-07T04:48:14.277Z,9.60
2019-05-07T04:50:47.654Z,9.50
2019-05-07T04:53:15.207Z,9.18
2019-05-07T04:55:43.658Z,8.90
2019-05-07T04:58:14.416Z,8.98
2019-05-07T05:00:43.384Z,8.85
2019-05-07T05:03:17.232Z,8.38
2019-05-07T05:05:47.378Z,7.83
2019-05-07T05:08:15.860Z,9.00
2019-05-07T05:10:46.038Z,8.53
2019-05-07T05:13:14.660Z,8.87
2019-05-07T05:15:43.359Z,9.15
2019-05-07T05:18:12.890Z,9.48
2019-05-07T05:20:46.506Z,9.85
2019-05-07T05:23:16.641Z,10.40
2019-05-07T05:25:45.479Z,10.32
2019-05-07T05:28:14.876Z,10.88
2019-05-07T05:30:49.627Z,10.63
2019-05-07T05:33:18.115Z,11.65
2019-05-07T05:35:46.580Z,11.45
2019-05-07T05:38:15.020Z,9.53
2019-05-07T05:40:43.513Z,11.50
2019-05-07T05:43:16.073Z,10.47
2019-05-07T05:45:53.001Z,10.97
2019-05-07T05:48:22.596Z,10.32
2019-05-07T05:51:11.922Z,10.82
2019-05-07T05:53:55.663Z,11.68
2019-05-07T05:56:28.379Z,10.53
2019-05-07T05:59:02.827Z,10.93
2019-05-07T06:01:33.641Z,10.50
2019-05-07T06:04:03.730Z,9.80
2019-05-07T06:06:42.718Z,11.38
2019-05-07T06:09:13.858Z,11.20
2019-05-07T06:11:59.192Z,10.10
2019-05-07T06:14:35.579Z,10.25
2019-05-07T06:17:12.977Z,9.55
2019-05-07T06:19:59.547Z,10.10
2019-05-07T06:22:44.505Z,9.40
2019-05-07T06:25:15.289Z,9.60
2019-05-07T06:27:43.914Z,9.30
2019-05-07T06:30:12.786Z,9.13
2019-05-07T06:32:43.098Z,9.78
2019-05-07T06:35:12.507Z,10.32
2019-05-07T06:37:42.931Z,10.30
2019-05-07T06:40:24.892Z,8.77
2019-05-07T06:42:56.033Z,8.45
2019-05-07T06:45:29.146Z,8.53
2019-05-07T06:47:58.396Z,8.50
2019-05-07T06:50:28.124Z,7.47
2019-05-07T06:52:57.811Z,7.08
2019-05-07T06:55:27.770Z,8.43
2019-05-07T06:57:56.283Z,7.72
2019-05-07T07:00:27.212Z,7.40
2019-05-07T07:03:17.058Z,7.50
2019-05-07T07:05:47.189Z,7.15
2019-05-07T07:08:29.522Z,7.25
2019-05-07T07:11:12.904Z,6.83
2019-05-07T07:13:43.251Z,7.22
2019-05-07T07:16:12.675Z,6.63
2019-05-07T07:18:49.519Z,7.22
2019-05-07T07:21:12.381Z,6.17
2019-05-07T07:23:42.978Z,6.78
2019-05-07T07:26:12.650Z,6.75
2019-05-07T07:28:42.916Z,6.53
2019-05-07T07:31:16.194Z,6.80
2019-05-07T07:33:46.291Z,6.60
2019-05-07T07:36:14.785Z,6.67
2019-05-07T07:38:43.256Z,6.20
2019-05-07T07:41:14.731Z,5.85
2019-05-07T07:43:43.194Z,7.45
2019-05-07T07:46:13.186Z,6.42
2019-05-07T07:48:43.544Z,7.42
2019-05-07T07:51:13.841Z,6.35
2019-05-07T07:53:44.723Z,6.33
2019-05-07T07:56:47.554Z,6.47
2019-05-07T07:59:04.660Z,6.10
2019-05-07T08:01:43.514Z,6.50
2019-05-07T08:04:12.427Z,6.92
2019-05-07T08:06:41.978Z,6.85
2019-05-07T08:09:12.983Z,6.50
2019-05-07T08:11:42.585Z,6.40
2019-05-07T08:14:12.673Z,6.28
2019-05-07T08:16:42.897Z,6.40
2019-05-07T08:19:21.724Z,6.90
2019-05-07T08:21:42.253Z,6.20
2019-05-07T08:24:12.222Z,6.75
2019-05-07T08:26:42.814Z,8.65
2019-05-07T08:29:11.912Z,8.23
2019-05-07T08:31:57.382Z,9.70
2019-05-07T08:34:27.489Z,9.78
2019-05-07T08:36:55.964Z,8.93
2019-05-07T08:39:25.096Z,9.28
2019-05-07T08:41:54.167Z,9.18
2019-05-07T08:44:27.211Z,9.23
2019-05-07T08:46:57.321Z,9.07
2019-05-07T08:49:35.662Z,10.55
2019-05-07T08:52:03.023Z,11.30
2019-05-07T08:54:32.394Z,11.93
2019-05-07T08:57:02.238Z,11.60
2019-05-07T08:59:32.052Z,11.03
2019-05-07T09:02:02.882Z,11.03
2019-05-07T09:04:32.850Z,11.80
2019-05-07T09:07:03.164Z,12.50
2019-05-07T09:09:33.103Z,13.68
2019-05-07T09:12:03.102Z,12.50
2019-05-07T09:14:32.378Z,12.28
2019-05-07T09:17:02.486Z,13.20
2019-05-07T09:19:46.887Z,13.40
2019-05-07T09:22:03.284Z,13.07
2019-05-07T09:24:33.341Z,14.05
2019-05-07T09:27:07.460Z,13.15
2019-05-07T09:29:43.610Z,12.63
2019-05-07T09:32:22.995Z,13.30
2019-05-07T09:34:58.841Z,12.78
2019-05-07T09:37:29.356Z,13.50
2019-05-07T09:39:58.175Z,14.00
2019-05-07T09:42:27.074Z,14.40
2019-05-07T09:44:55.950Z,14.18
2019-05-07T09:47:24.633Z,13.98
2019-05-07T09:50:03.997Z,13.45
2019-05-07T09:52:23.464Z,14.47
2019-05-07T09:54:52.409Z,14.07
2019-05-07T09:57:30.096Z,13.78
2019-05-07T09:59:53.080Z,13.38
2019-05-07T10:02:23.638Z,12.95
2019-05-07T10:04:53.803Z,13.38
2019-05-07T10:07:22.580Z,11.78
2019-05-07T10:09:52.335Z,13.03
2019-05-07T10:12:23.172Z,13.40
2019-05-07T10:14:52.248Z,12.90
2019-05-07T10:17:32.736Z,12.43
2019-05-07T10:20:07.265Z,12.58
2019-05-07T10:22:33.167Z,13.40
2019-05-07T10:25:02.800Z,13.15
2019-05-07T10:27:32.465Z,13.75
2019-05-07T10:30:02.588Z,13.53
2019-05-07T10:32:32.237Z,13.62
2019-05-07T10:35:02.087Z,14.28
2019-05-07T10:37:31.889Z,13.75
2019-05-07T10:40:03.042Z,13.90
2019-05-07T10:42:32.332Z,13.78
2019-05-07T10:45:08.699Z,15.18
2019-05-07T10:47:41.804Z,14.43
2019-05-07T10:50:34.935Z,14.60
2019-05-07T10:52:50.327Z,14.55
2019-05-07T10:55:18.769Z,16.07
2019-05-07T10:57:47.264Z,16.55
2019-05-07T11:00:18.286Z,14.60
2019-05-07T11:02:47.213Z,15.05
2019-05-07T11:05:16.322Z,14.40
2019-05-07T11:07:44.840Z,15.63
2019-05-07T11:10:14.137Z,16.50
2019-05-07T11:12:42.890Z,16.50
2019-05-07T11:15:12.650Z,16.35
2019-05-07T11:18:21.836Z,13.98
2019-05-07T11:20:53.379Z,15.47
2019-05-07T11:23:22.257Z,14.40
2019-05-07T11:25:52.642Z,16.73
2019-05-07T11:28:22.700Z,16.00
2019-05-07T11:30:51.504Z,16.35
2019-05-07T11:33:22.045Z,17.00
2019-05-07T11:35:52.638Z,16.27
2019-05-07T11:38:24.830Z,15.00
2019-05-07T11:40:52.069Z,15.93
2019-05-07T11:43:39.998Z,15.50
2019-05-07T11:46:10.185Z,15.18
2019-05-07T11:48:42.160Z,15.57
2019-05-07T11:51:15.264Z,15.98
2019-05-07T11:54:02.206Z,15.80
2019-05-07T11:56:32.992Z,15.50
2019-05-07T11:59:02.682Z,15.40
2019-05-07T12:01:43.488Z,15.65
2019-05-07T12:04:03.093Z,15.48
2019-05-07T12:06:32.179Z,15.05
2019-05-07T12:09:04.092Z,13.70
2019-05-07T12:11:37.165Z,13.83
2019-05-07T12:14:05.876Z,14.85
2019-05-07T12:16:34.373Z,14.38
2019-05-07T12:19:03.136Z,13.10
2019-05-07T12:21:32.170Z,13.20
2019-05-07T12:24:02.154Z,14.38
2019-05-07T12:26:33.226Z,15.32
2019-05-07T12:29:01.688Z,15.63
2019-05-07T12:31:34.312Z,14.43
2019-05-07T12:34:07.605Z,15.03
2019-05-07T12:36:38.495Z,14.80
2019-05-07T12:39:09.405Z,16.12
2019-05-07T12:41:37.948Z,16.23
2019-05-07T12:44:08.856Z,14.80
2019-05-07T12:46:39.693Z,15.83
2019-05-07T12:49:08.248Z,15.78
2019-05-07T12:51:39.906Z,14.20
2019-05-07T12:54:15.364Z,16.25
2019-05-07T12:56:44.133Z,15.83
2019-05-07T12:59:13.464Z,15.30
2019-05-07T13:02:00.043Z,15.23
2019-05-07T13:04:32.358Z,15.10
2019-05-07T13:07:13.653Z,14.03
2019-05-07T13:09:42.768Z,14.05
2019-05-07T13:12:11.660Z,15.45
2019-05-07T13:14:42.163Z,18.17
2019-05-07T13:17:12.097Z,20.25
2019-05-07T13:19:42.038Z,19.82
2019-05-07T13:22:12.415Z,20.45
2019-05-07T13:24:44.008Z,18.27
2019-05-07T13:27:12.531Z,17.87
2019-05-07T13:29:42.514Z,17.10
2019-05-07T13:32:13.863Z,16.02
2019-05-07T13:34:43.047Z,15.05
2019-05-07T13:37:17.104Z,15.98
2019-05-07T13:39:47.272Z,16.25
2019-05-07T13:42:39.014Z,16.45
2019-05-07T13:45:11.833Z,16.70
2019-05-07T13:47:40.892Z,19.13
2019-05-07T13:50:11.927Z,17.70
2019-05-07T13:52:43.262Z,19.65
2019-05-07T13:55:14.251Z,18.57
2019-05-07T13:57:43.273Z,18.50
2019-05-07T14:00:15.772Z,18.87
2019-05-07T14:02:44.997Z,18.98
2019-05-07T14:05:14.315Z,18.00
2019-05-07T14:07:45.357Z,17.73
2019-05-07T14:10:14.346Z,19.42
2019-05-07T14:12:42.973Z,20.72
2019-05-07T14:15:12.587Z,20.82
2019-05-07T14:17:41.629Z,20.23
2019-05-07T14:20:12.766Z,19.57
2019-05-07T14:22:42.595Z,19.10
2019-05-07T14:25:32.430Z,19.45
2019-05-07T14:28:02.236Z,17.85
2019-05-07T14:30:32.762Z,18.35
2019-05-07T14:33:06.085Z,18.80
2019-05-07T14:35:39.340Z,18.10
2019-05-07T14:38:13.930Z,17.60
2019-05-07T14:40:43.820Z,17.67
2019-05-07T14:43:17.007Z,16.50
2019-05-07T14:45:45.450Z,17.40
2019-05-07T14:48:13.984Z,17.98
2019-05-07T14:50:44.868Z,19.03
2019-05-07T14:53:13.823Z,17.93
2019-05-07T14:55:42.423Z,17.77
2019-05-07T14:58:12.386Z,18.57
2019-05-07T15:00:42.657Z,19.70
2019-05-07T15:03:13.534Z,19.32
2019-05-07T15:05:43.544Z,19.42
2019-05-07T15:08:14.465Z,19.35
2019-05-07T15:10:43.342Z,19.75
2019-05-07T15:13:12.725Z,19.73
2019-05-07T15:15:42.082Z,19.77
2019-05-07T15:18:16.224Z,21.27
2019-05-07T15:20:45.154Z,21.00
2019-05-07T15:23:19.588Z,20.05
2019-05-07T15:25:48.391Z,20.17
2019-05-07T15:28:17.443Z,21.90
2019-05-07T15:31:04.531Z,20.20
2019-05-07T15:33:33.120Z,22.52
2019-05-07T15:36:02.902Z,22.45
2019-05-07T15:38:32.344Z,21.00
2019-05-07T15:41:02.222Z,21.07
2019-05-07T15:43:32.376Z,22.45
2019-05-07T15:46:02.099Z,20.75
2019-05-07T15:48:32.649Z,19.37
2019-05-07T15:51:05.791Z,18.98
2019-05-07T15:56:06.739Z,19.85
2019-05-07T15:58:42.352Z,16.85
2019-05-07T16:01:09.306Z,18.05
2019-05-07T16:03:45.441Z,17.73
2019-05-07T16:06:15.634Z,17.23
2019-05-07T16:08:49.229Z,18.48
2019-05-07T16:11:17.722Z,16.75
2019-05-07T16:14:07.073Z,16.93
2019-05-07T16:16:39.250Z,15.72
2019-05-07T16:19:12.442Z,14.93
2019-05-07T16:21:42.525Z,11.40
2019-05-07T16:24:12.165Z,12.68
2019-05-07T16:26:41.906Z,12.50
2019-05-07T16:29:12.978Z,11.73
2019-05-07T16:31:41.192Z,11.35
2019-05-07T16:34:09.722Z,11.22
2019-05-07T16:36:39.383Z,10.55
2019-05-07T16:39:08.510Z,10.78
2019-05-07T16:41:38.093Z,9.88
2019-05-07T16:44:07.985Z,9.98
2019-05-07T16:46:38.786Z,9.35
2019-05-07T16:49:08.864Z,9.35
2019-05-07T16:51:38.933Z,8.80
2019-05-07T16:54:07.588Z,8.50
2019-05-07T16:56:38.804Z,8.65
2019-05-07T16:59:13.323Z,8.40
2019-05-07T17:01:43.467Z,9.23
2019-05-07T17:04:12.885Z,8.48
2019-05-07T17:06:42.621Z,8.35
2019-05-07T17:09:14.486Z,8.63
2019-05-07T17:11:43.693Z,8.05
2019-05-07T17:14:13.330Z,9.43
2019-05-07T17:16:41.881Z,8.68
2019-05-07T17:19:12.002Z,9.03
2019-05-07T17:21:43.231Z,8.23
2019-05-07T17:24:13.651Z,9.20
2019-05-07T17:26:43.487Z,8.93
2019-05-07T17:29:17.156Z,8.90
2019-05-07T17:31:47.049Z,8.48
2019-05-07T17:34:17.305Z,9.35
2019-05-07T17:36:46.243Z,9.05
2019-05-07T17:39:15.631Z,9.63
2019-05-07T17:41:44.111Z,9.40
2019-05-07T17:44:12.645Z,9.57
2019-05-07T17:46:42.872Z,9.63
2019-05-07T17:49:12.559Z,10.00
2019-05-07T17:51:42.672Z,10.58
2019-05-07T17:54:15.148Z,9.50
2019-05-07T17:56:46.130Z,10.15
2019-05-07T17:59:14.647Z,10.05
2019-05-07T18:01:50.096Z,10.40
2019-05-07T18:04:23.979Z,10.58
2019-05-07T18:06:55.563Z,10.60
2019-05-07T18:09:24.061Z,10.45
2019-05-07T18:11:52.538Z,10.65
2019-05-07T18:14:22.880Z,9.30
2019-05-07T18:16:57.502Z,10.13
2019-05-07T18:19:28.548Z,9.53
2019-05-07T18:21:57.458Z,9.93
2019-05-07T18:24:27.700Z,10.85
2019-05-07T18:26:56.188Z,10.85
2019-05-07T18:29:24.990Z,11.00
2019-05-07T18:31:57.927Z,11.48
2019-05-07T18:34:32.029Z,12.07
2019-05-07T18:39:32.476Z,12.60
2019-05-07T18:42:02.815Z,14.75
2019-05-07T18:44:36.476Z,13.28
2019-05-07T18:49:36.755Z,14.58
2019-05-07T18:52:08.442Z,14.03
2019-05-07T18:54:42.779Z,14.68
2019-05-07T18:57:11.295Z,16.30
2019-05-07T18:59:39.830Z,16.45
2019-05-07T19:02:10.164Z,16.42
2019-05-07T19:04:38.645Z,16.97
2019-05-07T19:07:13.055Z,16.30
2019-05-07T19:09:43.939Z,16.05
2019-05-07T19:12:15.353Z,15.72
2019-05-07T19:14:45.861Z,16.48
2019-05-07T19:17:15.955Z,17.02
2019-05-07T19:19:44.433Z,17.50
2019-05-07T19:22:13.067Z,18.30
2019-05-07T19:24:47.938Z,17.75
2019-05-07T19:27:15.961Z,17.57
2019-05-07T19:29:45.874Z,18.30
2019-05-07T19:32:15.802Z,19.95
2019-05-07T19:34:45.187Z,17.87
2019-05-07T19:37:13.815Z,18.83
2019-05-07T19:39:42.994Z,19.05
2019-05-07T19:42:12.170Z,19.05
2019-05-07T19:44:45.829Z,18.85
2019-05-07T19:47:17.287Z,18.57
2019-05-07T19:49:45.760Z,17.23
2019-05-07T19:52:14.363Z,17.80
2019-05-07T19:54:47.161Z,17.67
2019-05-07T19:57:15.903Z,19.27
2019-05-07T19:59:45.446Z,19.10
2019-05-07T20:02:15.770Z,19.62
2019-05-07T20:04:44.220Z,20.27
2019-05-07T20:07:12.784Z,20.60
2019-05-07T20:09:42.865Z,20.43
2019-05-07T20:12:11.366Z,20.32
2019-05-07T20:14:42.081Z,18.82
2019-05-07T20:17:12.325Z,21.50
2019-05-07T20:19:41.752Z,21.55
2019-05-07T20:22:12.790Z,20.02
2019-05-07T20:24:46.993Z,22.35
2019-05-07T20:27:16.884Z,20.32
2019-05-07T20:29:45.354Z,21.33
2019-05-07T20:32:13.849Z,23.63
2019-05-07T20:34:42.392Z,22.65
2019-05-07T20:37:12.961Z,21.80
2019-05-07T20:39:42.636Z,22.98
2019-05-07T20:42:12.799Z,21.42
2019-05-07T20:44:42.635Z,21.02
2019-05-07T20:47:12.705Z,20.57
2019-05-07T20:49:43.032Z,19.17
2019-05-07T20:52:13.067Z,20.68
2019-05-07T20:54:43.173Z,21.00
2019-05-07T20:57:16.036Z,21.30
2019-05-07T20:59:44.515Z,21.30
2019-05-07T21:02:13.026Z,20.13
2019-05-07T21:04:42.476Z,20.37
2019-05-07T21:07:11.988Z,20.43
2019-05-07T21:09:42.257Z,20.17
2019-05-07T21:12:12.867Z,19.57
2019-05-07T21:14:41.800Z,20.15
2019-05-07T21:17:11.978Z,21.50
2019-05-07T21:19:42.835Z,18.70
2019-05-07T21:22:13.068Z,17.85
2019-05-07T21:24:42.201Z,20.75
2019-05-07T21:27:12.228Z,20.02
2019-05-07T21:29:42.495Z,19.27
2019-05-07T21:32:12.392Z,20.40
2019-05-07T21:34:42.147Z,19.48
2019-05-07T21:37:12.668Z,19.20
2019-05-07T21:39:42.427Z,19.73
2019-05-07T21:42:13.964Z,21.33
2019-05-07T21:44:43.056Z,18.80
2019-05-07T21:47:12.581Z,20.68
2019-05-07T21:49:43.026Z,20.17
2019-05-07T21:52:12.700Z,20.50
2019-05-07T21:54:43.687Z,20.23
2019-05-07T21:57:16.861Z,19.85
2019-05-07T21:59:45.310Z,20.03
2019-05-07T22:02:22.056Z,20.97
2019-05-07T22:04:52.753Z,20.43
2019-05-07T22:07:22.781Z,20.60
2019-05-07T22:09:52.319Z,20.10
2019-05-07T22:12:22.636Z,21.63
2019-05-07T22:14:52.851Z,20.43
2019-05-07T22:17:21.979Z,19.50
2019-05-07T22:19:52.497Z,21.55
2019-05-07T22:22:23.987Z,21.12
2019-05-07T22:24:53.145Z,20.05
2019-05-07T22:27:42.197Z,19.25
2019-05-07T22:30:12.876Z,19.73
2019-05-07T22:32:52.823Z,19.35
2019-05-07T22:35:25.952Z,19.73
2019-05-07T22:37:54.425Z,19.50
2019-05-07T22:40:23.216Z,20.50
2019-05-07T22:42:52.581Z,19.87
2019-05-07T22:45:22.810Z,20.52
2019-05-07T22:47:52.615Z,19.55
2019-05-07T22:50:22.573Z,20.00
2019-05-07T22:52:52.553Z,19.17
2019-05-07T22:55:21.966Z,19.70
2019-05-07T22:57:56.065Z,20.62
2019-05-07T23:00:28.884Z,20.02
2019-05-07T23:02:57.445Z,20.87
2019-05-07T23:05:27.184Z,21.95
2019-05-07T23:07:55.688Z,22.30
2019-05-07T23:10:24.132Z,20.57
2019-05-07T23:12:52.811Z,22.70
2019-05-07T23:15:22.631Z,20.70
2019-05-07T23:17:52.583Z,21.57
2019-05-07T23:20:24.124Z,22.10
2019-05-07T23:22:51.995Z,22.65
2019-05-07T23:25:24.298Z,22.35
2019-05-07T23:27:52.779Z,21.10
2019-05-07T23:30:22.371Z,22.48
2019-05-07T23:32:52.768Z,21.23
2019-05-07T23:35:22.197Z,20.35
2019-05-07T23:37:52.918Z,21.60
2019-05-07T23:40:34.755Z,22.67
2019-05-07T23:43:05.182Z,21.57
2019-05-07T23:45:33.648Z,21.40
2019-05-07T23:48:02.818Z,20.68
2019-05-07T23:50:32.409Z,20.63
2019-05-07T23:53:02.376Z,21.80
2019-05-07T23:55:32.507Z,21.87
2019-05-07T23:58:03.130Z,21.02
